createdAt,value
2022-07-31T00:03:50.000Z,19.87
2022-07-31T00:08:44.000Z,19.86
2022-07-31T00:13:39.000Z,19.64
2022-07-31T00:18:36.000Z,19.61
2022-07-31T00:23:26.000Z,19.68
2022-07-31T00:28:20.000Z,19.71
2022-07-31T00:33:15.000Z,19.57
2022-07-31T00:38:10.000Z,19.59
2022-07-31T00:43:04.000Z,19.51
2022-07-31T00:47:59.000Z,19.27
2022-07-31T00:52:51.000Z,19.3
2022-07-31T00:57:46.000Z,19.36
2022-07-31T01:02:40.000Z,19.36
2022-07-31T01:07:35.000Z,19.17
2022-07-31T01:12:29.000Z,19.07
2022-07-31T01:17:23.000Z,18.93
2022-07-31T01:22:18.000Z,18.88
2022-07-31T01:27:12.000Z,18.76
2022-07-31T01:32:07.000Z,18.78
2022-07-31T01:37:02.000Z,18.71
2022-07-31T01:41:55.000Z,18.37
2022-07-31T01:46:52.000Z,18.25
2022-07-31T01:51:44.000Z,18.16
2022-07-31T01:56:38.000Z,18.1
2022-07-31T02:01:32.000Z,18.1
2022-07-31T02:06:26.000Z,18.1
2022-07-31T02:11:21.000Z,18.17
2022-07-31T02:16:15.000Z,18.17
2022-07-31T02:21:10.000Z,18.08
2022-07-31T02:26:05.000Z,18.07
2022-07-31T02:30:59.000Z,17.91
2022-07-31T02:35:53.000Z,17.64
2022-07-31T02:40:48.000Z,17.67
2022-07-31T02:45:42.000Z,17.5
2022-07-31T02:50:37.000Z,17.36
2022-07-31T02:55:31.000Z,17.25
2022-07-31T03:00:26.000Z,17.39
2022-07-31T03:05:21.000Z,17.42
2022-07-31T03:10:15.000Z,17.47
2022-07-31T03:15:10.000Z,17.6
2022-07-31T03:20:05.000Z,17.7
2022-07-31T03:24:59.000Z,17.6
2022-07-31T03:29:53.000Z,17.57
2022-07-31T03:34:48.000Z,17.47
2022-07-31T03:39:43.000Z,17.56
2022-07-31T03:44:37.000Z,17.52
2022-07-31T03:49:31.000Z,17.56
2022-07-31T03:54:33.000Z,17.54
2022-07-31T03:59:19.000Z,17.63
2022-07-31T04:04:13.000Z,17.67
2022-07-31T04:09:07.000Z,17.83
2022-07-31T04:14:02.000Z,17.81
2022-07-31T04:18:56.000Z,17.77
2022-07-31T04:23:51.000Z,17.69
2022-07-31T04:28:45.000Z,17.74
2022-07-31T04:33:40.000Z,17.85
2022-07-31T04:38:34.000Z,17.93
2022-07-31T04:43:29.000Z,17.97
2022-07-31T04:48:24.000Z,18.28
2022-07-31T04:53:19.000Z,18.57
2022-07-31T04:58:12.000Z,18.8
2022-07-31T05:03:07.000Z,18.81
2022-07-31T05:08:01.000Z,18.73
2022-07-31T05:12:55.000Z,19.01
2022-07-31T05:17:49.000Z,19.17
2022-07-31T05:22:43.000Z,19.13
2022-07-31T05:27:38.000Z,19.56
2022-07-31T05:32:33.000Z,19.47
2022-07-31T05:37:26.000Z,19.46
2022-07-31T05:42:20.000Z,19.37
2022-07-31T05:47:15.000Z,19.5
2022-07-31T05:52:10.000Z,19.56
2022-07-31T05:57:04.000Z,19.74
2022-07-31T06:01:59.000Z,20.02
2022-07-31T06:06:52.000Z,20.12
2022-07-31T06:11:46.000Z,20.71
2022-07-31T06:16:40.000Z,20.81
2022-07-31T06:21:34.000Z,20.9
2022-07-31T06:26:28.000Z,21.04
2022-07-31T06:31:23.000Z,21.04
2022-07-31T06:36:17.000Z,22.1
2022-07-31T06:41:12.000Z,22.39
2022-07-31T06:46:07.000Z,22.7
2022-07-31T06:51:02.000Z,22.95
2022-07-31T06:55:56.000Z,22.85
2022-07-31T07:00:50.000Z,22.8
2022-07-31T07:05:45.000Z,23.08
2022-07-31T07:10:40.000Z,23.55
2022-07-31T07:15:35.000Z,24.04
2022-07-31T07:20:29.000Z,24.02
2022-07-31T07:25:24.000Z,24.2
2022-07-31T07:30:19.000Z,24.18
2022-07-31T07:35:14.000Z,23.88
2022-07-31T07:40:08.000Z,23.87
2022-07-31T07:45:03.000Z,24.05
2022-07-31T07:49:57.000Z,23.71
2022-07-31T07:54:51.000Z,24.37
2022-07-31T07:59:45.000Z,24.46
2022-07-31T08:04:40.000Z,24.26
2022-07-31T08:09:34.000Z,23.96
2022-07-31T08:14:29.000Z,23.76
2022-07-31T08:19:24.000Z,24.38
2022-07-31T08:24:19.000Z,24.79
2022-07-31T08:29:11.000Z,25
2022-07-31T08:34:06.000Z,25.31
2022-07-31T08:39:01.000Z,25.44
2022-07-31T08:43:56.000Z,25.45
2022-07-31T08:48:51.000Z,25.08
2022-07-31T08:53:45.000Z,24.51
2022-07-31T08:58:38.000Z,24.85
2022-07-31T09:03:30.000Z,24.73
2022-07-31T09:08:25.000Z,25.46
2022-07-31T09:13:20.000Z,25.27
2022-07-31T09:18:14.000Z,25.1
2022-07-31T09:23:09.000Z,25.85
2022-07-31T09:28:03.000Z,26.51
2022-07-31T09:32:58.000Z,25.41
2022-07-31T09:37:52.000Z,24.97
2022-07-31T09:42:46.000Z,25.42
2022-07-31T09:47:41.000Z,25.5
2022-07-31T09:52:35.000Z,25.28
2022-07-31T09:57:28.000Z,24.92
2022-07-31T10:02:24.000Z,25.07
2022-07-31T10:07:18.000Z,25.61
2022-07-31T10:12:13.000Z,25.56
2022-07-31T10:17:07.000Z,25.91
2022-07-31T10:22:02.000Z,27.21
2022-07-31T10:26:58.000Z,27.87
2022-07-31T10:31:53.000Z,27.76
2022-07-31T10:36:48.000Z,27.33
2022-07-31T10:41:43.000Z,30.41
2022-07-31T10:46:40.000Z,32.87
2022-07-31T10:51:35.000Z,29.46
2022-07-31T10:56:29.000Z,29.53
2022-07-31T11:01:23.000Z,29.47
2022-07-31T11:06:18.000Z,29.67
2022-07-31T11:11:13.000Z,30.44
2022-07-31T11:16:08.000Z,30.44
2022-07-31T11:21:03.000Z,30.11
2022-07-31T11:25:58.000Z,28.91
2022-07-31T11:30:52.000Z,32.21
2022-07-31T11:35:49.000Z,31.75
2022-07-31T11:40:45.000Z,29.5
2022-07-31T11:45:39.000Z,29.36
2022-07-31T11:50:31.000Z,29.9
2022-07-31T11:55:25.000Z,30.01
2022-07-31T12:00:20.000Z,29.99
2022-07-31T12:05:15.000Z,30.36
2022-07-31T12:10:10.000Z,30.08
2022-07-31T12:15:05.000Z,31.2
2022-07-31T12:19:59.000Z,34.35
2022-07-31T12:24:55.000Z,32.82
2022-07-31T12:29:50.000Z,32.98
2022-07-31T12:34:45.000Z,31.54
2022-07-31T12:39:40.000Z,30.36
2022-07-31T12:44:32.000Z,31.02
2022-07-31T12:49:27.000Z,30.92
2022-07-31T12:54:21.000Z,32.12
2022-07-31T12:59:16.000Z,32.18
2022-07-31T13:04:11.000Z,36.33
2022-07-31T13:09:07.000Z,37.05
2022-07-31T13:14:03.000Z,37.24
2022-07-31T13:18:59.000Z,34.3
2022-07-31T13:23:53.000Z,32.39
2022-07-31T13:28:45.000Z,33.26
2022-07-31T13:33:40.000Z,35.6
2022-07-31T13:38:35.000Z,33.81
2022-07-31T13:43:30.000Z,34.93
2022-07-31T13:48:25.000Z,32.61
2022-07-31T13:53:18.000Z,30.9
2022-07-31T13:58:11.000Z,32.02
2022-07-31T14:03:06.000Z,31.79
2022-07-31T14:08:00.000Z,30.84
2022-07-31T14:12:55.000Z,34.24
2022-07-31T14:17:50.000Z,31.48
2022-07-31T14:22:44.000Z,32.07
2022-07-31T14:27:50.000Z,30.95
2022-07-31T14:32:36.000Z,32.13
2022-07-31T14:37:29.000Z,37.41
2022-07-31T14:42:25.000Z,37.63
2022-07-31T14:47:20.000Z,35.41
2022-07-31T14:52:15.000Z,32.97
2022-07-31T14:57:09.000Z,30.83
2022-07-31T15:02:02.000Z,30.36
2022-07-31T15:06:56.000Z,30.65
2022-07-31T15:11:50.000Z,30.33
2022-07-31T15:16:45.000Z,30.44
2022-07-31T15:21:39.000Z,30.16
2022-07-31T15:26:34.000Z,29.82
2022-07-31T15:31:28.000Z,30.17
2022-07-31T15:36:22.000Z,30.07
2022-07-31T15:41:17.000Z,30.36
2022-07-31T15:46:12.000Z,32.61
2022-07-31T15:51:06.000Z,29.88
2022-07-31T15:56:01.000Z,28.97
2022-07-31T16:00:55.000Z,29.14
2022-07-31T16:05:49.000Z,29.91
2022-07-31T16:10:44.000Z,29.37
2022-07-31T16:15:39.000Z,29.24
2022-07-31T16:20:33.000Z,30.94
2022-07-31T16:25:28.000Z,30.67
2022-07-31T16:30:23.000Z,35.62
2022-07-31T16:35:20.000Z,32.87
2022-07-31T16:40:14.000Z,29.64
2022-07-31T16:45:08.000Z,33.24
2022-07-31T16:50:04.000Z,29.91
2022-07-31T16:54:57.000Z,29.35
2022-07-31T16:59:49.000Z,29.14
2022-07-31T17:04:44.000Z,29.29
2022-07-31T17:09:38.000Z,28.88
2022-07-31T17:14:32.000Z,28.72
2022-07-31T17:19:26.000Z,28.29
2022-07-31T17:24:20.000Z,28.06
2022-07-31T17:29:15.000Z,27.74
2022-07-31T17:34:10.000Z,27.45
2022-07-31T17:39:04.000Z,27.77
2022-07-31T17:43:59.000Z,27.59
2022-07-31T17:48:53.000Z,27.11
2022-07-31T17:58:43.000Z,26.48
2022-07-31T18:03:38.000Z,26.95
2022-07-31T18:08:33.000Z,26.76
2022-07-31T18:13:27.000Z,26.63
2022-07-31T18:18:22.000Z,26.28
2022-07-31T18:23:17.000Z,26.29
2022-07-31T18:28:11.000Z,26.28
2022-07-31T18:33:06.000Z,26.32
2022-07-31T18:38:01.000Z,26.15
2022-07-31T18:42:55.000Z,26
2022-07-31T18:47:49.000Z,25.72
2022-07-31T18:52:44.000Z,25.5
2022-07-31T18:57:38.000Z,25.41
2022-07-31T19:02:33.000Z,25.16
2022-07-31T19:07:28.000Z,25.13
2022-07-31T19:12:22.000Z,25
2022-07-31T19:17:17.000Z,24.91
2022-07-31T19:22:11.000Z,24.96
2022-07-31T19:27:08.000Z,24.94
2022-07-31T19:31:57.000Z,24.85
2022-07-31T19:36:50.000Z,24.83
2022-07-31T19:41:45.000Z,24.7
2022-07-31T19:46:39.000Z,24.73
2022-07-31T19:51:34.000Z,24.6
2022-07-31T19:56:28.000Z,24.54
2022-07-31T20:01:23.000Z,24.42
2022-07-31T20:06:18.000Z,24.49
2022-07-31T20:11:12.000Z,24.42
2022-07-31T20:16:06.000Z,24.3
2022-07-31T20:21:01.000Z,24.2
2022-07-31T20:25:55.000Z,24.17
2022-07-31T20:30:50.000Z,24.12
2022-07-31T20:35:45.000Z,24.06
2022-07-31T20:40:39.000Z,23.88
2022-07-31T20:45:34.000Z,23.69
2022-07-31T20:50:28.000Z,23.52
2022-07-31T20:55:23.000Z,23.48
2022-07-31T21:00:18.000Z,23.16
2022-07-31T21:05:12.000Z,23.29
2022-07-31T21:10:06.000Z,23.29
2022-07-31T21:15:01.000Z,23.23
2022-07-31T21:19:55.000Z,23.06
2022-07-31T21:24:50.000Z,23.06
2022-07-31T21:29:45.000Z,23.02
2022-07-31T21:34:40.000Z,22.86
2022-07-31T21:39:34.000Z,22.83
2022-07-31T21:44:29.000Z,22.78
2022-07-31T21:49:24.000Z,22.67
2022-07-31T21:54:19.000Z,22.49
2022-07-31T21:59:13.000Z,22.48
2022-07-31T22:04:07.000Z,22.46
2022-07-31T22:09:02.000Z,22.29
2022-07-31T22:13:56.000Z,22.21
2022-07-31T22:18:50.000Z,22
2022-07-31T22:23:45.000Z,21.96
2022-07-31T22:28:40.000Z,21.93
2022-07-31T22:33:34.000Z,21.95
2022-07-31T22:38:29.000Z,21.98
2022-07-31T22:43:24.000Z,21.92
2022-07-31T22:48:19.000Z,22
2022-07-31T22:53:12.000Z,21.96
2022-07-31T22:58:06.000Z,21.7
2022-07-31T23:03:01.000Z,21.63
2022-07-31T23:07:55.000Z,21.61
2022-07-31T23:12:50.000Z,21.56
2022-07-31T23:17:44.000Z,21.46
2022-07-31T23:22:39.000Z,21.31
2022-07-31T23:27:33.000Z,21.24
2022-07-31T23:32:28.000Z,21.14
2022-07-31T23:37:23.000Z,20.98
2022-07-31T23:42:17.000Z,20.95
2022-07-31T23:47:12.000Z,20.77
2022-07-31T23:52:07.000Z,20.68
2022-07-31T23:57:01.000Z,20.68
